Terminal Aerodrome Forecast
Issued by NWS

Home | Current Version | Previous Version | Text Only | Print | Product List | Glossary On
Versions: 1 2 3 4 5 6 7 8 9 10 11 12 13 14 15 16 17 18 19 20 21 22 23
000
FTUS43 KSGF 010900 AAC
TAFBBG
TAF AMD
KBBG 010942Z 0110/0206 00000KT 1/4SM FG VV002
      TEMPO 0110/0113 1SM BR SCT002
     FM011300 VRB03KT 3SM BR SCT008
     FM011400 09005KT P6SM SCT030=

USA.gov is the U.S. government's official web portal to all federal, state and local government web resources and services.